Главная страница
METAR-TAF:

METAR-TAF

Аэропорты :

Нджамена, Чад

широта: 12-08N, долгота: 015-02E, высота над уровнем моря: 295 м

Текущие метеонаблюдения

Эта сводка был подготовлена 19 часа и 15 минут назад, в 11:00 UTC
Ветер 3 Узел переменных направлений
Температура 35°C
Влажность 53%
Давление 1010 hPa
Видимость 10 км и более
небольшая облачность на высоте 4000 фута

METAR: FTTJ 221100Z VRB03KT 9999 FEW040 35/24 Q1010 NOSIG

Время: 07:15 (06:15 UTC)

Прогноз

Эта сводка был подготовлена 1 час и 15 минут назад, в 05:00 UTC
Прогноз действительный с 23-го 06 UTC до 24-го 12 UTC
Ветер 6 Узел от юго-западный
Видимость 10 км и более
Нет облачности ниже 1500 м, и нет кучево-дождевой облачности
Вероятность 30% :
временами
С 23-го 16 UTC до 23-го 22 UTC
гроза

TAF: FTTJ 230500Z 2306/2412 22006KT CAVOK PROB30 TEMPO 2316/2322 TS

Метеонаблюдения и прогнозы для более 4000 аэропортов (сводки METAR и TAF).

Имеющиеся станции представлены на карте желтыми и красными точками.

Чтобы увидеть название станции, наведите на нее мышь.

Затем щелкните, чтобы увидеть метеонаблюдения и метеопрогнозы.

Управление картой: чтобы увеличить масштаб, щелкните зеленые кнопки с черным крестиком; чтобы уменьшить масштаб, щелкните зеленую кнопку с тире; для просмотра соседних карт щелкайте зеленые стрелки.


METAR-TAF: